sensor_id;sensor_type;location;lat;lon;timestamp;pressure;altitude;pressure_sealevel;temperature;humidity
75815;BME280;70031;45.570;14.228;2023-07-13T00:01:43;96787.06;;;21.60;77.89
75815;BME280;70031;45.570;14.228;2023-07-13T00:03:43;96772.84;;;21.54;78.17
75815;BME280;70031;45.570;14.228;2023-07-13T00:05:43;96777.31;;;21.63;76.93
75815;BME280;70031;45.570;14.228;2023-07-13T00:07:44;96766.50;;;21.70;76.00
75815;BME280;70031;45.570;14.228;2023-07-13T00:09:46;96767.94;;;21.64;75.95
75815;BME280;70031;45.570;14.228;2023-07-13T00:11:51;96773.66;;;21.55;75.98
75815;BME280;70031;45.570;14.228;2023-07-13T00:13:52;96775.03;;;21.45;76.01
75815;BME280;70031;45.570;14.228;2023-07-13T00:15:52;96771.78;;;21.40;77.89
75815;BME280;70031;45.570;14.228;2023-07-13T00:17:55;96770.97;;;21.39;78.75
75815;BME280;70031;45.570;14.228;2023-07-13T00:19:56;96774.59;;;21.43;77.63
75815;BME280;70031;45.570;14.228;2023-07-13T00:21:56;96761.41;;;21.29;75.80
75815;BME280;70031;45.570;14.228;2023-07-13T00:23:57;96765.78;;;21.53;73.02
75815;BME280;70031;45.570;14.228;2023-07-13T00:25:58;96754.97;;;21.80;70.00
75815;BME280;70031;45.570;14.228;2023-07-13T00:27:58;96741.88;;;21.93;69.50
75815;BME280;70031;45.570;14.228;2023-07-13T00:29:59;96736.66;;;22.07;67.56
75815;BME280;70031;45.570;14.228;2023-07-13T00:31:59;96732.03;;;22.34;63.06
75815;BME280;70031;45.570;14.228;2023-07-13T00:34:00;96735.34;;;22.43;63.55
75815;BME280;70031;45.570;14.228;2023-07-13T00:36:00;96748.09;;;22.58;61.04
75815;BME280;70031;45.570;14.228;2023-07-13T00:38:01;96766.19;;;22.63;61.13
75815;BME280;70031;45.570;14.228;2023-07-13T00:40:05;96774.81;;;22.61;63.13
75815;BME280;70031;45.570;14.228;2023-07-13T00:42:06;96776.56;;;22.50;61.81
75815;BME280;70031;45.570;14.228;2023-07-13T00:44:13;96775.69;;;22.42;66.53
75815;BME280;70031;45.570;14.228;2023-07-13T00:46:23;96766.44;;;22.08;68.56
75815;BME280;70031;45.570;14.228;2023-07-13T00:48:31;96762.13;;;22.07;65.32
75815;BME280;70031;45.570;14.228;2023-07-13T00:50:32;96767.63;;;22.30;65.08
75815;BME280;70031;45.570;14.228;2023-07-13T00:52:35;96764.94;;;22.11;68.91
75815;BME280;70031;45.570;14.228;2023-07-13T00:54:41;96773.09;;;21.88;72.46
75815;BME280;70031;45.570;14.228;2023-07-13T00:56:45;96776.22;;;21.67;73.70
75815;BME280;70031;45.570;14.228;2023-07-13T00:58:46;96784.44;;;21.67;73.93
75815;BME280;70031;45.570;14.228;2023-07-13T01:00:48;96779.91;;;21.55;73.82
75815;BME280;70031;45.570;14.228;2023-07-13T01:02:49;96779.75;;;21.48;73.40
75815;BME280;70031;45.570;14.228;2023-07-13T01:04:50;96779.91;;;21.36;74.31
75815;BME280;70031;45.570;14.228;2023-07-13T01:06:50;96792.50;;;21.41;73.89
75815;BME280;70031;45.570;14.228;2023-07-13T01:08:51;96796.63;;;21.31;73.35
75815;BME280;70031;45.570;14.228;2023-07-13T01:10:56;96804.56;;;21.36;72.63
75815;BME280;70031;45.570;14.228;2023-07-13T01:12:57;96814.72;;;21.36;71.99
75815;BME280;70031;45.570;14.228;2023-07-13T01:17:35;96819.91;;;21.25;73.18
75815;BME280;70031;45.570;14.228;2023-07-13T01:19:38;96831.34;;;21.27;71.06
75815;BME280;70031;45.570;14.228;2023-07-13T01:21:39;96854.78;;;21.44;71.41
75815;BME280;70031;45.570;14.228;2023-07-13T01:23:42;96867.75;;;21.47;71.00
75815;BME280;70031;45.570;14.228;2023-07-13T01:25:44;96862.34;;;21.50;69.77
75815;BME280;70031;45.570;14.228;2023-07-13T01:27:45;96865.13;;;21.70;69.00
75815;BME280;70031;45.570;14.228;2023-07-13T01:29:45;96862.63;;;21.84;66.79
75815;BME280;70031;45.570;14.228;2023-07-13T01:31:47;96857.47;;;21.98;65.56
75815;BME280;70031;45.570;14.228;2023-07-13T01:33:48;96846.22;;;22.23;63.77
75815;BME280;70031;45.570;14.228;2023-07-13T01:35:48;96848.78;;;22.35;63.74
75815;BME280;70031;45.570;14.228;2023-07-13T01:37:48;96846.34;;;22.30;65.53
75815;BME280;70031;45.570;14.228;2023-07-13T01:39:49;96851.31;;;22.24;66.02
75815;BME280;70031;45.570;14.228;2023-07-13T01:41:49;96855.16;;;22.20;67.17
75815;BME280;70031;45.570;14.228;2023-07-13T01:43:49;96859.19;;;22.06;67.06
75815;BME280;70031;45.570;14.228;2023-07-13T01:45:50;96855.59;;;22.02;67.84
75815;BME280;70031;45.570;14.228;2023-07-13T01:47:50;96857.09;;;22.00;67.65
75815;BME280;70031;45.570;14.228;2023-07-13T01:49:51;96864.88;;;21.98;68.21
75815;BME280;70031;45.570;14.228;2023-07-13T01:51:52;96868.41;;;21.98;68.44
75815;BME280;70031;45.570;14.228;2023-07-13T01:53:52;96872.25;;;21.94;68.48
75815;BME280;70031;45.570;14.228;2023-07-13T01:55:52;96872.97;;;21.91;67.44
75815;BME280;70031;45.570;14.228;2023-07-13T01:57:53;96875.63;;;21.87;69.27
75815;BME280;70031;45.570;14.228;2023-07-13T01:59:53;96873.09;;;21.98;68.99
75815;BME280;70031;45.570;14.228;2023-07-13T02:01:54;96867.84;;;22.08;69.10
75815;BME280;70031;45.570;14.228;2023-07-13T02:03:54;96864.16;;;21.81;70.19
75815;BME280;70031;45.570;14.228;2023-07-13T02:05:54;96870.53;;;21.85;71.16
75815;BME280;70031;45.570;14.228;2023-07-13T02:07:55;96879.59;;;21.70;71.43
75815;BME280;70031;45.570;14.228;2023-07-13T02:09:55;96880.97;;;21.61;73.17
75815;BME280;70031;45.570;14.228;2023-07-13T02:11:55;96889.22;;;21.45;74.34
75815;BME280;70031;45.570;14.228;2023-07-13T02:13:56;96891.78;;;21.22;76.19
75815;BME280;70031;45.570;14.228;2023-07-13T02:15:56;96906.63;;;21.21;76.67
75815;BME280;70031;45.570;14.228;2023-07-13T02:17:56;96898.44;;;21.05;78.49
75815;BME280;70031;45.570;14.228;2023-07-13T02:19:58;96893.31;;;21.03;77.43
75815;BME280;70031;45.570;14.228;2023-07-13T02:21:58;96895.25;;;21.19;78.06
75815;BME280;70031;45.570;14.228;2023-07-13T02:23:59;96905.75;;;21.17;77.49
75815;BME280;70031;45.570;14.228;2023-07-13T02:26:01;96910.84;;;21.18;78.61
75815;BME280;70031;45.570;14.228;2023-07-13T02:28:02;96896.56;;;20.93;78.80
75815;BME280;70031;45.570;14.228;2023-07-13T02:30:04;96877.78;;;20.92;79.61
75815;BME280;70031;45.570;14.228;2023-07-13T02:32:05;96865.38;;;20.79;80.37
75815;BME280;70031;45.570;14.228;2023-07-13T02:34:05;96844.09;;;20.72;81.63
75815;BME280;70031;45.570;14.228;2023-07-13T02:36:06;96838.88;;;20.67;81.25
75815;BME280;70031;45.570;14.228;2023-07-13T02:38:07;96814.09;;;20.60;81.41
75815;BME280;70031;45.570;14.228;2023-07-13T02:40:09;96816.31;;;20.70;79.57
75815;BME280;70031;45.570;14.228;2023-07-13T02:42:09;96829.81;;;20.63;79.96
75815;BME280;70031;45.570;14.228;2023-07-13T02:44:12;96840.75;;;20.47;81.79
75815;BME280;70031;45.570;14.228;2023-07-13T02:46:13;96850.56;;;20.20;83.95
75815;BME280;70031;45.570;14.228;2023-07-13T02:48:14;96856.19;;;20.11;84.67
75815;BME280;70031;45.570;14.228;2023-07-13T02:50:14;96864.69;;;20.38;84.34
75815;BME280;70031;45.570;14.228;2023-07-13T02:52:14;96876.59;;;20.30;84.99
75815;BME280;70031;45.570;14.228;2023-07-13T02:54:15;96866.41;;;20.14;85.40
75815;BME280;70031;45.570;14.228;2023-07-13T02:56:15;96863.63;;;19.99;86.83
75815;BME280;70031;45.570;14.228;2023-07-13T02:58:16;96857.34;;;19.82;87.29
75815;BME280;70031;45.570;14.228;2023-07-13T03:00:19;96860.03;;;19.54;89.43
75815;BME280;70031;45.570;14.228;2023-07-13T03:02:20;96855.34;;;19.55;89.17
75815;BME280;70031;45.570;14.228;2023-07-13T03:04:20;96853.97;;;19.61;89.88
75815;BME280;70031;45.570;14.228;2023-07-13T03:06:20;96862.28;;;19.52;90.42
75815;BME280;70031;45.570;14.228;2023-07-13T03:08:21;96864.44;;;19.71;90.52
75815;BME280;70031;45.570;14.228;2023-07-13T03:10:22;96870.44;;;19.77;89.66
75815;BME280;70031;45.570;14.228;2023-07-13T03:12:23;96872.16;;;19.69;89.69
75815;BME280;70031;45.570;14.228;2023-07-13T03:14:23;96862.88;;;19.58;90.10
75815;BME280;70031;45.570;14.228;2023-07-13T03:16:24;96865.59;;;19.58;91.33
75815;BME280;70031;45.570;14.228;2023-07-13T03:18:27;96845.94;;;19.40;92.12
75815;BME280;70031;45.570;14.228;2023-07-13T03:20:27;96840.09;;;19.14;92.97
75815;BME280;70031;45.570;14.228;2023-07-13T03:22:28;96841.69;;;19.15;93.22
75815;BME280;70031;45.570;14.228;2023-07-13T03:24:28;96828.94;;;19.19;93.31
75815;BME280;70031;45.570;14.228;2023-07-13T03:26:28;96830.31;;;19.00;93.67
75815;BME280;70031;45.570;14.228;2023-07-13T03:28:29;96841.03;;;18.81;94.91
75815;BME280;70031;45.570;14.228;2023-07-13T03:30:29;96843.28;;;18.67;95.99
75815;BME280;70031;45.570;14.228;2023-07-13T03:32:29;96855.09;;;18.83;95.67
75815;BME280;70031;45.570;14.228;2023-07-13T03:34:30;96865.56;;;18.81;95.20
75815;BME280;70031;45.570;14.228;2023-07-13T03:36:31;96862.38;;;18.79;95.27
75815;BME280;70031;45.570;14.228;2023-07-13T03:38:33;96852.59;;;18.90;94.84
75815;BME280;70031;45.570;14.228;2023-07-13T03:40:33;96851.91;;;18.69;96.08
75815;BME280;70031;45.570;14.228;2023-07-13T03:42:33;96852.44;;;18.38;98.65
75815;BME280;70031;45.570;14.228;2023-07-13T03:44:34;96838.25;;;18.57;96.45
75815;BME280;70031;45.570;14.228;2023-07-13T03:46:35;96828.13;;;18.45;97.42
75815;BME280;70031;45.570;14.228;2023-07-13T03:48:35;96812.25;;;18.47;97.29
75815;BME280;70031;45.570;14.228;2023-07-13T03:50:36;96807.59;;;18.47;96.70
75815;BME280;70031;45.570;14.228;2023-07-13T03:52:36;96813.16;;;18.39;97.55
75815;BME280;70031;45.570;14.228;2023-07-13T03:54:36;96802.22;;;18.14;99.49
75815;BME280;70031;45.570;14.228;2023-07-13T03:56:37;96805.50;;;18.08;99.20
75815;BME280;70031;45.570;14.228;2023-07-13T03:58:39;96810.84;;;18.16;98.66
75815;BME280;70031;45.570;14.228;2023-07-13T04:00:40;96807.47;;;18.32;97.57
75815;BME280;70031;45.570;14.228;2023-07-13T04:02:40;96809.16;;;18.24;97.96
75815;BME280;70031;45.570;14.228;2023-07-13T04:04:41;96807.31;;;18.16;98.16
75815;BME280;70031;45.570;14.228;2023-07-13T04:06:41;96791.28;;;18.02;99.12
75815;BME280;70031;45.570;14.228;2023-07-13T04:08:42;96792.41;;;18.01;98.93
75815;BME280;70031;45.570;14.228;2023-07-13T04:10:44;96793.56;;;18.00;99.43
75815;BME280;70031;45.570;14.228;2023-07-13T04:12:44;96797.56;;;18.15;98.33
75815;BME280;70031;45.570;14.228;2023-07-13T04:14:45;96790.88;;;18.24;98.42
75815;BME280;70031;45.570;14.228;2023-07-13T04:16:46;96802.81;;;18.32;97.94
75815;BME280;70031;45.570;14.228;2023-07-13T04:18:47;96797.94;;;18.38;98.18
75815;BME280;70031;45.570;14.228;2023-07-13T04:20:49;96808.50;;;18.51;97.39
75815;BME280;70031;45.570;14.228;2023-07-13T04:22:49;96811.72;;;18.66;97.27
75815;BME280;70031;45.570;14.228;2023-07-13T04:24:50;96811.38;;;18.79;95.12
75815;BME280;70031;45.570;14.228;2023-07-13T04:26:50;96805.91;;;18.92;94.71
75815;BME280;70031;45.570;14.228;2023-07-13T04:28:51;96815.53;;;19.01;95.71
75815;BME280;70031;45.570;14.228;2023-07-13T04:30:52;96812.81;;;19.14;96.22
75815;BME280;70031;45.570;14.228;2023-07-13T04:32:53;96812.91;;;19.29;95.71
75815;BME280;70031;45.570;14.228;2023-07-13T04:34:53;96814.91;;;19.32;95.42
75815;BME280;70031;45.570;14.228;2023-07-13T04:36:55;96818.66;;;19.40;96.02
75815;BME280;70031;45.570;14.228;2023-07-13T04:38:56;96808.31;;;19.46;96.15
75815;BME280;70031;45.570;14.228;2023-07-13T04:40:58;96801.44;;;19.52;96.07
75815;BME280;70031;45.570;14.228;2023-07-13T04:42:59;96800.13;;;19.74;94.26
75815;BME280;70031;45.570;14.228;2023-07-13T04:45:00;96806.00;;;19.48;97.25
75815;BME280;70031;45.570;14.228;2023-07-13T04:47:00;96815.94;;;19.40;96.42
75815;BME280;70031;45.570;14.228;2023-07-13T04:49:00;96822.28;;;19.44;97.02
75815;BME280;70031;45.570;14.228;2023-07-13T04:51:01;96817.25;;;19.58;96.03
75815;BME280;70031;45.570;14.228;2023-07-13T04:53:02;96824.88;;;19.53;96.65
75815;BME280;70031;45.570;14.228;2023-07-13T04:55:04;96828.72;;;19.64;96.18
75815;BME280;70031;45.570;14.228;2023-07-13T04:57:05;96827.16;;;19.51;97.34
75815;BME280;70031;45.570;14.228;2023-07-13T04:59:06;96841.25;;;19.65;97.06
75815;BME280;70031;45.570;14.228;2023-07-13T05:01:07;96841.88;;;19.74;96.77
75815;BME280;70031;45.570;14.228;2023-07-13T05:03:08;96833.94;;;19.97;96.54
75815;BME280;70031;45.570;14.228;2023-07-13T05:05:09;96831.44;;;20.20;94.60
75815;BME280;70031;45.570;14.228;2023-07-13T05:07:09;96833.09;;;20.25;94.42
75815;BME280;70031;45.570;14.228;2023-07-13T05:09:10;96837.22;;;20.03;93.35
75815;BME280;70031;45.570;14.228;2023-07-13T05:11:10;96823.03;;;19.97;92.64
75815;BME280;70031;45.570;14.228;2023-07-13T05:13:11;96834.78;;;20.13;93.06
75815;BME280;70031;45.570;14.228;2023-07-13T05:15:11;96839.38;;;20.41;94.00
75815;BME280;70031;45.570;14.228;2023-07-13T05:17:11;96839.97;;;20.46;92.37
75815;BME280;70031;45.570;14.228;2023-07-13T05:19:12;96847.72;;;20.44;91.87
75815;BME280;70031;45.570;14.228;2023-07-13T05:21:12;96847.00;;;20.63;92.70
75815;BME280;70031;45.570;14.228;2023-07-13T05:23:13;96842.78;;;20.66;92.71
75815;BME280;70031;45.570;14.228;2023-07-13T05:25:14;96859.53;;;20.80;92.07
75815;BME280;70031;45.570;14.228;2023-07-13T05:27:14;96847.97;;;20.87;91.32
75815;BME280;70031;45.570;14.228;2023-07-13T05:29:15;96851.31;;;20.80;90.84
75815;BME280;70031;45.570;14.228;2023-07-13T05:31:15;96849.31;;;20.77;90.74
75815;BME280;70031;45.570;14.228;2023-07-13T05:33:16;96852.66;;;20.86;91.12
75815;BME280;70031;45.570;14.228;2023-07-13T05:35:17;96850.97;;;20.97;91.51
75815;BME280;70031;45.570;14.228;2023-07-13T05:37:17;96848.28;;;21.01;87.13
75815;BME280;70031;45.570;14.228;2023-07-13T05:39:18;96853.25;;;21.11;90.34
75815;BME280;70031;45.570;14.228;2023-07-13T05:41:19;96851.94;;;20.89;88.82
75815;BME280;70031;45.570;14.228;2023-07-13T05:43:19;96853.97;;;20.76;86.90
75815;BME280;70031;45.570;14.228;2023-07-13T05:45:19;96858.13;;;21.02;88.08
75815;BME280;70031;45.570;14.228;2023-07-13T05:47:20;96863.22;;;21.03;86.69
75815;BME280;70031;45.570;14.228;2023-07-13T05:49:20;96868.09;;;20.94;88.06
75815;BME280;70031;45.570;14.228;2023-07-13T05:51:20;96862.09;;;20.89;89.36
75815;BME280;70031;45.570;14.228;2023-07-13T05:53:21;96869.97;;;21.25;91.03
75815;BME280;70031;45.570;14.228;2023-07-13T05:55:22;96868.13;;;21.65;89.95
75815;BME280;70031;45.570;14.228;2023-07-13T05:57:22;96865.81;;;22.25;88.35
75815;BME280;70031;45.570;14.228;2023-07-13T05:59:22;96867.31;;;22.64;82.97
75815;BME280;70031;45.570;14.228;2023-07-13T06:01:23;96866.00;;;23.01;82.74
75815;BME280;70031;45.570;14.228;2023-07-13T06:03:23;96871.13;;;23.29;81.34
75815;BME280;70031;45.570;14.228;2023-07-13T06:05:24;96887.09;;;23.23;79.57
75815;BME280;70031;45.570;14.228;2023-07-13T06:07:24;96893.66;;;23.15;80.18
75815;BME280;70031;45.570;14.228;2023-07-13T06:09:24;96882.88;;;23.03;80.43
75815;BME280;70031;45.570;14.228;2023-07-13T06:11:26;96879.59;;;22.93;82.53
75815;BME280;70031;45.570;14.228;2023-07-13T06:13:27;96869.09;;;22.76;80.37
75815;BME280;70031;45.570;14.228;2023-07-13T06:15:34;96881.59;;;22.74;80.83
75815;BME280;70031;45.570;14.228;2023-07-13T06:17:34;96902.03;;;22.76;81.15
75815;BME280;70031;45.570;14.228;2023-07-13T06:19:35;96886.69;;;23.21;80.33
75815;BME280;70031;45.570;14.228;2023-07-13T06:21:35;96893.72;;;23.45;78.69
75815;BME280;70031;45.570;14.228;2023-07-13T06:23:36;96887.25;;;23.87;77.36
75815;BME280;70031;45.570;14.228;2023-07-13T06:25:37;96884.81;;;24.15;78.60
75815;BME280;70031;45.570;14.228;2023-07-13T06:27:37;96883.06;;;24.67;74.96
75815;BME280;70031;45.570;14.228;2023-07-13T06:29:37;96867.41;;;24.75;70.01
75815;BME280;70031;45.570;14.228;2023-07-13T06:31:38;96856.44;;;24.37;73.21
75815;BME280;70031;45.570;14.228;2023-07-13T06:33:39;96884.41;;;24.09;72.92
75815;BME280;70031;45.570;14.228;2023-07-13T06:35:39;96877.94;;;23.95;73.58
75815;BME280;70031;45.570;14.228;2023-07-13T06:37:39;96865.25;;;24.20;73.92
75815;BME280;70031;45.570;14.228;2023-07-13T06:39:40;96863.91;;;24.07;71.08
75815;BME280;70031;45.570;14.228;2023-07-13T06:41:40;96867.50;;;24.45;67.22
75815;BME280;70031;45.570;14.228;2023-07-13T06:43:40;96871.56;;;24.24;71.86
75815;BME280;70031;45.570;14.228;2023-07-13T06:45:43;96863.44;;;24.72;73.21
75815;BME280;70031;45.570;14.228;2023-07-13T06:47:45;96860.03;;;24.86;70.00
75815;BME280;70031;45.570;14.228;2023-07-13T06:49:46;96864.13;;;25.03;71.61
75815;BME280;70031;45.570;14.228;2023-07-13T06:51:46;96846.91;;;25.16;72.93
75815;BME280;70031;45.570;14.228;2023-07-13T06:53:46;96842.59;;;24.71;74.33
75815;BME280;70031;45.570;14.228;2023-07-13T06:55:47;96847.56;;;24.55;73.15
75815;BME280;70031;45.570;14.228;2023-07-13T06:57:48;96850.97;;;24.41;74.29
75815;BME280;70031;45.570;14.228;2023-07-13T06:59:48;96850.22;;;24.44;70.63
75815;BME280;70031;45.570;14.228;2023-07-13T07:01:48;96850.00;;;24.26;68.66
75815;BME280;70031;45.570;14.228;2023-07-13T07:03:49;96843.84;;;24.36;66.15
75815;BME280;70031;45.570;14.228;2023-07-13T07:05:49;96839.28;;;24.51;65.75
75815;BME280;70031;45.570;14.228;2023-07-13T07:07:50;96834.41;;;24.82;65.29
75815;BME280;70031;45.570;14.228;2023-07-13T07:09:51;96843.91;;;24.88;65.49
75815;BME280;70031;45.570;14.228;2023-07-13T07:11:52;96852.66;;;25.01;65.78
75815;BME280;70031;45.570;14.228;2023-07-13T07:13:53;96853.84;;;25.00;64.24
75815;BME280;70031;45.570;14.228;2023-07-13T07:15:53;96860.03;;;24.89;64.88
75815;BME280;70031;45.570;14.228;2023-07-13T07:17:54;96849.91;;;25.01;64.81
75815;BME280;70031;45.570;14.228;2023-07-13T07:19:54;96855.91;;;25.10;63.99
75815;BME280;70031;45.570;14.228;2023-07-13T07:21:54;96850.41;;;25.10;63.91
75815;BME280;70031;45.570;14.228;2023-07-13T07:23:55;96851.13;;;25.62;64.18
75815;BME280;70031;45.570;14.228;2023-07-13T07:25:55;96850.31;;;25.58;64.78
75815;BME280;70031;45.570;14.228;2023-07-13T07:27:56;96855.41;;;25.56;63.36
75815;BME280;70031;45.570;14.228;2023-07-13T07:29:56;96846.47;;;25.07;64.63
75815;BME280;70031;45.570;14.228;2023-07-13T07:31:59;96835.69;;;24.91;66.32
75815;BME280;70031;45.570;14.228;2023-07-13T07:33:59;96833.75;;;24.96;63.52
75815;BME280;70031;45.570;14.228;2023-07-13T07:36:00;96843.66;;;25.04;65.02
75815;BME280;70031;45.570;14.228;2023-07-13T07:38:01;96835.09;;;24.68;64.42
75815;BME280;70031;45.570;14.228;2023-07-13T07:40:02;96838.56;;;24.58;66.56
75815;BME280;70031;45.570;14.228;2023-07-13T07:42:02;96845.91;;;24.47;65.66
75815;BME280;70031;45.570;14.228;2023-07-13T07:44:03;96847.38;;;24.37;66.03
75815;BME280;70031;45.570;14.228;2023-07-13T07:46:04;96848.50;;;24.32;65.62
75815;BME280;70031;45.570;14.228;2023-07-13T07:48:05;96852.59;;;24.46;67.88
75815;BME280;70031;45.570;14.228;2023-07-13T07:50:06;96845.78;;;24.77;64.70
75815;BME280;70031;45.570;14.228;2023-07-13T07:52:07;96850.53;;;24.80;65.21
75815;BME280;70031;45.570;14.228;2023-07-13T07:54:07;96848.94;;;24.75;66.64
75815;BME280;70031;45.570;14.228;2023-07-13T07:56:08;96855.22;;;24.76;66.36
75815;BME280;70031;45.570;14.228;2023-07-13T07:58:10;96856.16;;;24.94;65.58
75815;BME280;70031;45.570;14.228;2023-07-13T08:00:11;96857.66;;;24.84;66.76
75815;BME280;70031;45.570;14.228;2023-07-13T08:02:11;96849.81;;;24.86;66.32
75815;BME280;70031;45.570;14.228;2023-07-13T08:04:12;96849.72;;;24.76;65.17
75815;BME280;70031;45.570;14.228;2023-07-13T08:06:12;96853.56;;;25.15;67.12
75815;BME280;70031;45.570;14.228;2023-07-13T08:08:13;96855.59;;;25.18;68.00
75815;BME280;70031;45.570;14.228;2023-07-13T08:10:17;96851.38;;;25.35;63.80
75815;BME280;70031;45.570;14.228;2023-07-13T08:12:17;96863.13;;;25.29;63.13
75815;BME280;70031;45.570;14.228;2023-07-13T08:14:18;96852.63;;;24.93;65.72
75815;BME280;70031;45.570;14.228;2023-07-13T08:16:18;96843.72;;;25.07;65.72
75815;BME280;70031;45.570;14.228;2023-07-13T08:18:19;96841.88;;;25.29;63.07
75815;BME280;70031;45.570;14.228;2023-07-13T08:20:19;96830.59;;;25.52;65.06
75815;BME280;70031;45.570;14.228;2023-07-13T08:22:20;96816.09;;;25.66;62.99
75815;BME280;70031;45.570;14.228;2023-07-13T08:24:23;96820.75;;;25.51;63.03
75815;BME280;70031;45.570;14.228;2023-07-13T08:26:23;96852.88;;;25.91;64.66
75815;BME280;70031;45.570;14.228;2023-07-13T08:28:24;96863.06;;;25.87;62.69
75815;BME280;70031;45.570;14.228;2023-07-13T08:30:24;96856.81;;;25.94;62.07
75815;BME280;70031;45.570;14.228;2023-07-13T08:32:24;96847.28;;;25.77;63.38
75815;BME280;70031;45.570;14.228;2023-07-13T08:34:25;96839.88;;;25.92;63.61
75815;BME280;70031;45.570;14.228;2023-07-13T08:36:25;96836.69;;;25.90;63.60
75815;BME280;70031;45.570;14.228;2023-07-13T08:38:27;96830.81;;;25.91;64.91
75815;BME280;70031;45.570;14.228;2023-07-13T08:40:30;96838.00;;;26.31;64.68
75815;BME280;70031;45.570;14.228;2023-07-13T08:42:41;96832.16;;;26.69;64.11
75815;BME280;70031;45.570;14.228;2023-07-13T08:46:55;96840.06;;;26.95;61.86
75815;BME280;70031;45.570;14.228;2023-07-13T08:48:59;96842.78;;;27.45;63.80
75815;BME280;70031;45.570;14.228;2023-07-13T08:51:20;96833.75;;;27.16;63.00
75815;BME280;70031;45.570;14.228;2023-07-13T08:53:33;96834.94;;;27.15;62.93
75815;BME280;70031;45.570;14.228;2023-07-13T08:55:36;96834.16;;;27.14;62.89
75815;BME280;70031;45.570;14.228;2023-07-13T09:00:04;96844.66;;;26.20;65.48
75815;BME280;70031;45.570;14.228;2023-07-13T09:04:43;96841.03;;;25.94;66.57
75815;BME280;70031;45.570;14.228;2023-07-13T09:07:05;96843.09;;;26.15;66.19
75815;BME280;70031;45.570;14.228;2023-07-13T09:09:21;96856.94;;;26.33;65.37
75815;BME280;70031;45.570;14.228;2023-07-13T09:14:20;96856.56;;;26.38;64.82
75815;BME280;70031;45.570;14.228;2023-07-13T09:16:24;96858.44;;;26.09;62.52
75815;BME280;70031;45.570;14.228;2023-07-13T09:18:46;96860.47;;;26.26;65.15
75815;BME280;70031;45.570;14.228;2023-07-13T09:21:09;96847.41;;;26.09;65.34
75815;BME280;70031;45.570;14.228;2023-07-13T09:23:20;96845.00;;;26.00;63.51
75815;BME280;70031;45.570;14.228;2023-07-13T09:25:27;96859.94;;;25.92;66.67
75815;BME280;70031;45.570;14.228;2023-07-13T09:27:39;96857.59;;;25.94;66.49
75815;BME280;70031;45.570;14.228;2023-07-13T09:29:45;96861.09;;;25.88;65.73
75815;BME280;70031;45.570;14.228;2023-07-13T09:31:50;96868.66;;;26.05;67.46
75815;BME280;70031;45.570;14.228;2023-07-13T09:33:53;96877.72;;;26.02;67.18
75815;BME280;70031;45.570;14.228;2023-07-13T09:35:53;96882.06;;;26.14;66.19
75815;BME280;70031;45.570;14.228;2023-07-13T09:38:19;96880.47;;;26.05;65.50
75815;BME280;70031;45.570;14.228;2023-07-13T09:42:49;96896.19;;;25.98;67.81
75815;BME280;70031;45.570;14.228;2023-07-13T09:44:56;96910.03;;;26.01;66.57
75815;BME280;70031;45.570;14.228;2023-07-13T09:46:57;96912.81;;;26.09;67.34
75815;BME280;70031;45.570;14.228;2023-07-13T09:48:57;96908.53;;;26.29;66.33
75815;BME280;70031;45.570;14.228;2023-07-13T09:51:09;96918.13;;;26.56;65.84
75815;BME280;70031;45.570;14.228;2023-07-13T09:53:15;96918.16;;;26.85;64.81
75815;BME280;70031;45.570;14.228;2023-07-13T09:55:26;96913.81;;;26.80;62.38
75815;BME280;70031;45.570;14.228;2023-07-13T09:57:27;96915.31;;;26.46;63.56
75815;BME280;70031;45.570;14.228;2023-07-13T09:59:35;96906.22;;;26.38;65.23
75815;BME280;70031;45.570;14.228;2023-07-13T10:01:38;96919.34;;;26.84;67.84
75815;BME280;70031;45.570;14.228;2023-07-13T10:03:38;96911.09;;;27.20;66.07
75815;BME280;70031;45.570;14.228;2023-07-13T10:05:42;96899.25;;;27.26;63.75
75815;BME280;70031;45.570;14.228;2023-07-13T10:07:44;96894.13;;;27.21;65.58
75815;BME280;70031;45.570;14.228;2023-07-13T10:09:44;96908.31;;;26.91;65.69
75815;BME280;70031;45.570;14.228;2023-07-13T10:11:45;96908.69;;;26.79;66.57
75815;BME280;70031;45.570;14.228;2023-07-13T10:13:51;96897.13;;;26.34;66.29
75815;BME280;70031;45.570;14.228;2023-07-13T10:15:55;96891.22;;;26.32;66.87
75815;BME280;70031;45.570;14.228;2023-07-13T10:17:56;96887.34;;;26.40;66.45
75815;BME280;70031;45.570;14.228;2023-07-13T10:20:03;96892.06;;;26.43;66.72
75815;BME280;70031;45.570;14.228;2023-07-13T10:22:45;96893.25;;;26.53;68.31
75815;BME280;70031;45.570;14.228;2023-07-13T10:24:44;96883.63;;;26.04;66.85
75815;BME280;70031;45.570;14.228;2023-07-13T10:28:57;96869.41;;;25.91;68.92
75815;BME280;70031;45.570;14.228;2023-07-13T10:31:01;96867.03;;;25.97;70.43
75815;BME280;70031;45.570;14.228;2023-07-13T10:33:02;96863.53;;;26.03;70.23
75815;BME280;70031;45.570;14.228;2023-07-13T10:35:03;96855.97;;;25.86;70.14
75815;BME280;70031;45.570;14.228;2023-07-13T10:37:05;96830.00;;;25.91;69.90
75815;BME280;70031;45.570;14.228;2023-07-13T10:39:15;96819.72;;;25.81;71.38
75815;BME280;70031;45.570;14.228;2023-07-13T10:41:20;96826.44;;;25.83;71.78
75815;BME280;70031;45.570;14.228;2023-07-13T10:43:28;96833.44;;;25.66;71.16
75815;BME280;70031;45.570;14.228;2023-07-13T10:45:32;96850.31;;;25.65;70.75
75815;BME280;70031;45.570;14.228;2023-07-13T10:47:34;96865.28;;;25.64;72.42
75815;BME280;70031;45.570;14.228;2023-07-13T10:49:36;96860.94;;;25.63;71.10
75815;BME280;70031;45.570;14.228;2023-07-13T10:51:38;96854.97;;;25.46;71.92
75815;BME280;70031;45.570;14.228;2023-07-13T10:53:39;96853.72;;;25.37;71.85
75815;BME280;70031;45.570;14.228;2023-07-13T10:57:54;96869.81;;;25.31;71.91